sensor_id;sensor_type;location;lat;lon;timestamp;P1;durP1;ratioP1;P2;durP2;ratioP2
29814;SDS011;16708;50.426;7.664;2023-05-19T00:04:06;5.30;;;1.20;;
29814;SDS011;16708;50.426;7.664;2023-05-19T00:09:00;7.30;;;1.40;;
29814;SDS011;16708;50.426;7.664;2023-05-19T00:13:55;8.80;;;1.30;;
29814;SDS011;16708;50.426;7.664;2023-05-19T00:18:49;6.40;;;1.30;;
29814;SDS011;16708;50.426;7.664;2023-05-19T00:23:43;7.60;;;1.40;;
29814;SDS011;16708;50.426;7.664;2023-05-19T00:28:38;6.50;;;1.70;;
29814;SDS011;16708;50.426;7.664;2023-05-19T00:33:32;2.90;;;1.10;;
29814;SDS011;16708;50.426;7.664;2023-05-19T00:38:25;5.30;;;1.20;;
29814;SDS011;16708;50.426;7.664;2023-05-19T00:43:18;7.70;;;1.60;;
29814;SDS011;16708;50.426;7.664;2023-05-19T00:48:12;6.50;;;1.40;;
29814;SDS011;16708;50.426;7.664;2023-05-19T00:53:05;5.20;;;1.40;;
29814;SDS011;16708;50.426;7.664;2023-05-19T00:57:59;6.70;;;1.50;;
29814;SDS011;16708;50.426;7.664;2023-05-19T01:02:53;4.70;;;1.40;;
29814;SDS011;16708;50.426;7.664;2023-05-19T01:07:48;5.80;;;1.40;;
29814;SDS011;16708;50.426;7.664;2023-05-19T01:12:41;6.10;;;1.60;;
29814;SDS011;16708;50.426;7.664;2023-05-19T01:17:35;8.60;;;1.50;;
29814;SDS011;16708;50.426;7.664;2023-05-19T01:32:18;6.30;;;1.20;;
29814;SDS011;16708;50.426;7.664;2023-05-19T01:37:12;5.10;;;1.40;;
29814;SDS011;16708;50.426;7.664;2023-05-19T01:42:06;4.10;;;1.60;;
29814;SDS011;16708;50.426;7.664;2023-05-19T01:47:01;7.40;;;1.50;;
29814;SDS011;16708;50.426;7.664;2023-05-19T01:51:55;7.20;;;1.30;;
29814;SDS011;16708;50.426;7.664;2023-05-19T01:56:51;6.10;;;1.30;;
29814;SDS011;16708;50.426;7.664;2023-05-19T02:01:44;5.30;;;1.40;;
29814;SDS011;16708;50.426;7.664;2023-05-19T02:06:38;7.70;;;1.50;;
29814;SDS011;16708;50.426;7.664;2023-05-19T02:11:32;5.30;;;1.50;;
29814;SDS011;16708;50.426;7.664;2023-05-19T02:16:26;4.80;;;1.30;;
29814;SDS011;16708;50.426;7.664;2023-05-19T02:21:21;6.00;;;1.40;;
29814;SDS011;16708;50.426;7.664;2023-05-19T02:26:15;4.30;;;1.10;;
29814;SDS011;16708;50.426;7.664;2023-05-19T02:31:10;6.90;;;1.70;;
29814;SDS011;16708;50.426;7.664;2023-05-19T02:36:04;9.10;;;1.70;;
29814;SDS011;16708;50.426;7.664;2023-05-19T02:40:58;3.80;;;1.40;;
29814;SDS011;16708;50.426;7.664;2023-05-19T02:45:51;6.50;;;1.70;;
29814;SDS011;16708;50.426;7.664;2023-05-19T02:50:46;8.10;;;1.50;;
29814;SDS011;16708;50.426;7.664;2023-05-19T02:55:40;5.90;;;1.20;;
29814;SDS011;16708;50.426;7.664;2023-05-19T03:00:34;5.60;;;1.50;;
29814;SDS011;16708;50.426;7.664;2023-05-19T03:05:28;9.20;;;2.00;;
29814;SDS011;16708;50.426;7.664;2023-05-19T03:10:23;6.10;;;1.80;;
29814;SDS011;16708;50.426;7.664;2023-05-19T03:15:17;4.90;;;1.40;;
29814;SDS011;16708;50.426;7.664;2023-05-19T03:20:11;7.60;;;1.50;;
29814;SDS011;16708;50.426;7.664;2023-05-19T03:25:06;4.80;;;1.40;;
29814;SDS011;16708;50.426;7.664;2023-05-19T03:30:00;5.90;;;1.60;;
29814;SDS011;16708;50.426;7.664;2023-05-19T03:34:54;6.80;;;1.60;;
29814;SDS011;16708;50.426;7.664;2023-05-19T03:39:48;12.00;;;1.60;;
29814;SDS011;16708;50.426;7.664;2023-05-19T03:44:43;6.50;;;1.60;;
29814;SDS011;16708;50.426;7.664;2023-05-19T03:49:37;8.30;;;1.50;;
29814;SDS011;16708;50.426;7.664;2023-05-19T03:54:31;7.50;;;2.20;;
29814;SDS011;16708;50.426;7.664;2023-05-19T03:59:24;7.60;;;1.90;;
29814;SDS011;16708;50.426;7.664;2023-05-19T04:04:18;8.30;;;1.70;;
29814;SDS011;16708;50.426;7.664;2023-05-19T04:09:12;5.40;;;1.60;;
29814;SDS011;16708;50.426;7.664;2023-05-19T04:14:06;6.10;;;1.70;;
29814;SDS011;16708;50.426;7.664;2023-05-19T04:19:00;3.90;;;1.70;;
29814;SDS011;16708;50.426;7.664;2023-05-19T04:23:55;4.80;;;1.90;;
29814;SDS011;16708;50.426;7.664;2023-05-19T04:28:49;7.60;;;1.80;;
29814;SDS011;16708;50.426;7.664;2023-05-19T04:33:44;6.50;;;1.90;;
29814;SDS011;16708;50.426;7.664;2023-05-19T04:38:38;4.70;;;1.60;;
29814;SDS011;16708;50.426;7.664;2023-05-19T04:43:32;5.40;;;1.90;;
29814;SDS011;16708;50.426;7.664;2023-05-19T04:48:27;11.70;;;2.20;;
29814;SDS011;16708;50.426;7.664;2023-05-19T04:53:21;4.20;;;1.90;;
29814;SDS011;16708;50.426;7.664;2023-05-19T04:58:15;4.00;;;1.80;;
29814;SDS011;16708;50.426;7.664;2023-05-19T05:03:10;7.80;;;2.10;;
29814;SDS011;16708;50.426;7.664;2023-05-19T05:08:04;7.30;;;2.00;;
29814;SDS011;16708;50.426;7.664;2023-05-19T05:12:58;8.20;;;2.10;;
29814;SDS011;16708;50.426;7.664;2023-05-19T05:17:53;8.70;;;2.30;;
29814;SDS011;16708;50.426;7.664;2023-05-19T05:22:47;6.00;;;2.10;;
29814;SDS011;16708;50.426;7.664;2023-05-19T05:27:42;6.60;;;2.20;;
29814;SDS011;16708;50.426;7.664;2023-05-19T05:32:36;5.40;;;1.80;;
29814;SDS011;16708;50.426;7.664;2023-05-19T05:37:31;7.40;;;2.00;;
29814;SDS011;16708;50.426;7.664;2023-05-19T05:42:25;8.30;;;1.50;;
29814;SDS011;16708;50.426;7.664;2023-05-19T05:47:19;5.50;;;1.60;;
29814;SDS011;16708;50.426;7.664;2023-05-19T05:52:14;4.80;;;2.00;;
29814;SDS011;16708;50.426;7.664;2023-05-19T05:57:08;6.10;;;2.00;;
29814;SDS011;16708;50.426;7.664;2023-05-19T06:02:03;6.00;;;1.60;;
29814;SDS011;16708;50.426;7.664;2023-05-19T06:06:56;7.00;;;1.80;;
29814;SDS011;16708;50.426;7.664;2023-05-19T06:11:51;6.40;;;1.60;;
29814;SDS011;16708;50.426;7.664;2023-05-19T06:16:44;6.20;;;1.60;;
29814;SDS011;16708;50.426;7.664;2023-05-19T06:21:36;7.00;;;1.80;;
29814;SDS011;16708;50.426;7.664;2023-05-19T06:26:30;6.60;;;1.60;;
29814;SDS011;16708;50.426;7.664;2023-05-19T06:31:24;6.30;;;1.50;;
29814;SDS011;16708;50.426;7.664;2023-05-19T06:36:18;5.90;;;1.60;;
29814;SDS011;16708;50.426;7.664;2023-05-19T06:41:13;6.50;;;1.90;;
29814;SDS011;16708;50.426;7.664;2023-05-19T06:46:07;7.10;;;1.60;;
29814;SDS011;16708;50.426;7.664;2023-05-19T06:51:02;6.90;;;1.30;;
29814;SDS011;16708;50.426;7.664;2023-05-19T06:55:56;8.10;;;1.40;;
29814;SDS011;16708;50.426;7.664;2023-05-19T07:00:50;5.60;;;1.40;;
29814;SDS011;16708;50.426;7.664;2023-05-19T07:05:45;4.60;;;1.40;;
29814;SDS011;16708;50.426;7.664;2023-05-19T07:10:38;8.70;;;2.60;;
29814;SDS011;16708;50.426;7.664;2023-05-19T07:15:32;7.20;;;1.70;;
29814;SDS011;16708;50.426;7.664;2023-05-19T07:20:26;8.70;;;1.60;;
29814;SDS011;16708;50.426;7.664;2023-05-19T07:25:21;4.60;;;1.40;;
29814;SDS011;16708;50.426;7.664;2023-05-19T07:30:16;4.90;;;1.40;;
29814;SDS011;16708;50.426;7.664;2023-05-19T07:35:10;5.40;;;1.40;;
29814;SDS011;16708;50.426;7.664;2023-05-19T07:40:04;6.50;;;1.70;;
29814;SDS011;16708;50.426;7.664;2023-05-19T07:44:59;5.10;;;1.30;;
29814;SDS011;16708;50.426;7.664;2023-05-19T07:49:53;6.20;;;1.50;;
29814;SDS011;16708;50.426;7.664;2023-05-19T07:54:49;9.40;;;1.90;;
29814;SDS011;16708;50.426;7.664;2023-05-19T07:59:43;6.20;;;1.40;;
29814;SDS011;16708;50.426;7.664;2023-05-19T08:04:38;5.10;;;1.50;;
29814;SDS011;16708;50.426;7.664;2023-05-19T08:09:32;7.40;;;1.60;;
29814;SDS011;16708;50.426;7.664;2023-05-19T08:14:27;9.10;;;2.10;;
29814;SDS011;16708;50.426;7.664;2023-05-19T08:19:21;9.90;;;1.70;;
29814;SDS011;16708;50.426;7.664;2023-05-19T08:24:16;4.70;;;1.40;;
29814;SDS011;16708;50.426;7.664;2023-05-19T08:29:10;4.80;;;1.60;;
29814;SDS011;16708;50.426;7.664;2023-05-19T08:34:05;6.70;;;1.30;;
29814;SDS011;16708;50.426;7.664;2023-05-19T08:38:59;5.50;;;1.50;;
29814;SDS011;16708;50.426;7.664;2023-05-19T08:43:53;3.40;;;1.40;;
29814;SDS011;16708;50.426;7.664;2023-05-19T08:48:48;4.80;;;1.50;;
29814;SDS011;16708;50.426;7.664;2023-05-19T08:53:42;5.10;;;1.50;;
29814;SDS011;16708;50.426;7.664;2023-05-19T08:58:37;8.20;;;1.60;;
29814;SDS011;16708;50.426;7.664;2023-05-19T09:03:29;5.80;;;1.50;;
29814;SDS011;16708;50.426;7.664;2023-05-19T09:08:24;6.20;;;1.70;;
29814;SDS011;16708;50.426;7.664;2023-05-19T09:13:18;5.80;;;1.80;;
29814;SDS011;16708;50.426;7.664;2023-05-19T09:18:13;5.10;;;1.50;;
29814;SDS011;16708;50.426;7.664;2023-05-19T09:23:08;4.00;;;1.30;;
29814;SDS011;16708;50.426;7.664;2023-05-19T09:32:58;8.60;;;1.80;;
29814;SDS011;16708;50.426;7.664;2023-05-19T09:37:52;3.90;;;1.40;;
29814;SDS011;16708;50.426;7.664;2023-05-19T09:42:47;4.80;;;1.60;;
29814;SDS011;16708;50.426;7.664;2023-05-19T09:47:41;3.90;;;1.30;;
29814;SDS011;16708;50.426;7.664;2023-05-19T09:52:37;5.60;;;1.40;;
29814;SDS011;16708;50.426;7.664;2023-05-19T09:57:33;6.60;;;1.50;;
29814;SDS011;16708;50.426;7.664;2023-05-19T10:02:28;6.80;;;1.60;;
29814;SDS011;16708;50.426;7.664;2023-05-19T10:07:24;4.70;;;1.50;;
29814;SDS011;16708;50.426;7.664;2023-05-19T10:12:19;6.90;;;1.90;;
29814;SDS011;16708;50.426;7.664;2023-05-19T10:17:15;3.80;;;1.50;;
29814;SDS011;16708;50.426;7.664;2023-05-19T10:22:09;4.70;;;1.60;;
29814;SDS011;16708;50.426;7.664;2023-05-19T10:27:04;5.40;;;1.50;;
29814;SDS011;16708;50.426;7.664;2023-05-19T10:36:55;6.00;;;1.80;;
29814;SDS011;16708;50.426;7.664;2023-05-19T10:41:49;4.40;;;1.70;;
29814;SDS011;16708;50.426;7.664;2023-05-19T10:46:44;4.60;;;1.80;;
29814;SDS011;16708;50.426;7.664;2023-05-19T10:51:39;6.80;;;2.00;;
29814;SDS011;16708;50.426;7.664;2023-05-19T11:11:18;7.40;;;2.20;;
29814;SDS011;16708;50.426;7.664;2023-05-19T11:16:12;6.00;;;1.90;;
29814;SDS011;16708;50.426;7.664;2023-05-19T11:21:02;5.70;;;1.90;;
29814;SDS011;16708;50.426;7.664;2023-05-19T11:25:56;6.10;;;2.00;;
29814;SDS011;16708;50.426;7.664;2023-05-19T11:30:51;4.30;;;1.80;;
29814;SDS011;16708;50.426;7.664;2023-05-19T11:35:46;8.20;;;2.20;;
29814;SDS011;16708;50.426;7.664;2023-05-19T11:40:41;4.00;;;2.00;;
29814;SDS011;16708;50.426;7.664;2023-05-19T11:45:35;5.30;;;1.90;;
29814;SDS011;16708;50.426;7.664;2023-05-19T11:50:29;3.60;;;1.90;;
29814;SDS011;16708;50.426;7.664;2023-05-19T11:55:24;4.10;;;1.90;;
29814;SDS011;16708;50.426;7.664;2023-05-19T12:00:18;5.40;;;1.90;;
29814;SDS011;16708;50.426;7.664;2023-05-19T12:05:10;4.20;;;2.00;;
29814;SDS011;16708;50.426;7.664;2023-05-19T12:10:04;4.60;;;1.90;;
29814;SDS011;16708;50.426;7.664;2023-05-19T12:14:55;4.60;;;2.00;;
29814;SDS011;16708;50.426;7.664;2023-05-19T12:19:50;4.70;;;1.80;;
29814;SDS011;16708;50.426;7.664;2023-05-19T12:24:44;3.70;;;1.90;;
29814;SDS011;16708;50.426;7.664;2023-05-19T12:29:38;3.80;;;1.80;;
29814;SDS011;16708;50.426;7.664;2023-05-19T12:34:32;3.20;;;1.80;;
29814;SDS011;16708;50.426;7.664;2023-05-19T12:39:26;4.60;;;1.90;;
29814;SDS011;16708;50.426;7.664;2023-05-19T12:44:20;4.50;;;1.70;;
29814;SDS011;16708;50.426;7.664;2023-05-19T12:49:14;2.70;;;1.80;;
29814;SDS011;16708;50.426;7.664;2023-05-19T12:54:08;3.10;;;1.80;;
29814;SDS011;16708;50.426;7.664;2023-05-19T12:59:02;2.70;;;1.60;;
29814;SDS011;16708;50.426;7.664;2023-05-19T13:03:56;1.90;;;1.60;;
29814;SDS011;16708;50.426;7.664;2023-05-19T13:08:49;3.40;;;1.80;;
29814;SDS011;16708;50.426;7.664;2023-05-19T13:13:44;2.70;;;1.70;;
29814;SDS011;16708;50.426;7.664;2023-05-19T13:18:39;2.60;;;1.80;;
29814;SDS011;16708;50.426;7.664;2023-05-19T13:23:33;5.40;;;2.00;;
29814;SDS011;16708;50.426;7.664;2023-05-19T13:28:28;3.50;;;1.90;;
29814;SDS011;16708;50.426;7.664;2023-05-19T13:33:21;2.40;;;1.80;;
29814;SDS011;16708;50.426;7.664;2023-05-19T13:38:16;4.40;;;1.80;;
29814;SDS011;16708;50.426;7.664;2023-05-19T13:43:09;4.60;;;1.80;;
29814;SDS011;16708;50.426;7.664;2023-05-19T13:48:03;3.50;;;1.80;;
29814;SDS011;16708;50.426;7.664;2023-05-19T13:52:56;4.50;;;1.50;;
29814;SDS011;16708;50.426;7.664;2023-05-19T13:57:51;3.40;;;1.60;;
29814;SDS011;16708;50.426;7.664;2023-05-19T14:02:45;6.20;;;2.40;;
29814;SDS011;16708;50.426;7.664;2023-05-19T14:07:40;3.80;;;1.60;;
29814;SDS011;16708;50.426;7.664;2023-05-19T14:12:36;5.30;;;1.90;;
29814;SDS011;16708;50.426;7.664;2023-05-19T14:17:29;3.80;;;1.90;;
29814;SDS011;16708;50.426;7.664;2023-05-19T14:22:23;4.80;;;2.00;;
29814;SDS011;16708;50.426;7.664;2023-05-19T14:27:17;4.80;;;2.20;;
29814;SDS011;16708;50.426;7.664;2023-05-19T14:32:11;4.30;;;2.00;;
29814;SDS011;16708;50.426;7.664;2023-05-19T14:37:04;3.40;;;1.70;;
29814;SDS011;16708;50.426;7.664;2023-05-19T14:41:59;3.00;;;1.70;;
29814;SDS011;16708;50.426;7.664;2023-05-19T14:46:54;3.90;;;1.90;;
29814;SDS011;16708;50.426;7.664;2023-05-19T14:51:48;3.90;;;1.80;;
29814;SDS011;16708;50.426;7.664;2023-05-19T14:56:41;4.30;;;1.90;;
29814;SDS011;16708;50.426;7.664;2023-05-19T15:01:35;4.30;;;2.40;;
29814;SDS011;16708;50.426;7.664;2023-05-19T15:06:28;5.10;;;1.90;;
29814;SDS011;16708;50.426;7.664;2023-05-19T15:11:23;5.50;;;2.10;;
29814;SDS011;16708;50.426;7.664;2023-05-19T15:16:17;4.90;;;1.70;;
29814;SDS011;16708;50.426;7.664;2023-05-19T15:21:12;2.80;;;1.40;;
29814;SDS011;16708;50.426;7.664;2023-05-19T15:26:06;4.30;;;1.80;;
29814;SDS011;16708;50.426;7.664;2023-05-19T15:31:01;4.50;;;1.90;;
29814;SDS011;16708;50.426;7.664;2023-05-19T15:35:53;6.30;;;2.20;;
29814;SDS011;16708;50.426;7.664;2023-05-19T15:40:46;4.60;;;1.50;;
29814;SDS011;16708;50.426;7.664;2023-05-19T15:45:40;4.70;;;1.80;;
29814;SDS011;16708;50.426;7.664;2023-05-19T15:50:35;3.50;;;1.60;;
29814;SDS011;16708;50.426;7.664;2023-05-19T15:55:30;3.20;;;1.70;;
29814;SDS011;16708;50.426;7.664;2023-05-19T16:00:24;3.70;;;1.60;;
29814;SDS011;16708;50.426;7.664;2023-05-19T16:05:18;4.00;;;1.60;;
29814;SDS011;16708;50.426;7.664;2023-05-19T16:10:12;4.00;;;1.60;;
29814;SDS011;16708;50.426;7.664;2023-05-19T16:15:06;6.20;;;1.70;;
29814;SDS011;16708;50.426;7.664;2023-05-19T16:19:59;4.40;;;1.60;;
29814;SDS011;16708;50.426;7.664;2023-05-19T16:24:53;2.80;;;1.60;;
29814;SDS011;16708;50.426;7.664;2023-05-19T16:29:47;3.60;;;1.50;;
29814;SDS011;16708;50.426;7.664;2023-05-19T16:34:41;4.50;;;1.60;;
29814;SDS011;16708;50.426;7.664;2023-05-19T16:39:34;2.30;;;1.70;;
29814;SDS011;16708;50.426;7.664;2023-05-19T16:44:27;2.70;;;1.40;;
29814;SDS011;16708;50.426;7.664;2023-05-19T16:49:21;5.00;;;1.60;;
29814;SDS011;16708;50.426;7.664;2023-05-19T16:54:16;4.00;;;1.60;;
29814;SDS011;16708;50.426;7.664;2023-05-19T16:59:08;4.50;;;1.60;;
29814;SDS011;16708;50.426;7.664;2023-05-19T17:04:01;4.30;;;1.50;;
29814;SDS011;16708;50.426;7.664;2023-05-19T17:08:52;3.00;;;1.40;;
29814;SDS011;16708;50.426;7.664;2023-05-19T17:13:46;2.60;;;1.30;;
29814;SDS011;16708;50.426;7.664;2023-05-19T17:18:40;2.90;;;1.20;;
29814;SDS011;16708;50.426;7.664;2023-05-19T17:23:34;2.90;;;1.20;;
29814;SDS011;16708;50.426;7.664;2023-05-19T17:28:28;3.90;;;1.50;;
29814;SDS011;16708;50.426;7.664;2023-05-19T17:33:22;4.30;;;1.40;;
29814;SDS011;16708;50.426;7.664;2023-05-19T17:38:16;4.40;;;1.40;;
29814;SDS011;16708;50.426;7.664;2023-05-19T17:43:10;2.50;;;1.50;;
29814;SDS011;16708;50.426;7.664;2023-05-19T17:48:04;3.40;;;1.20;;
29814;SDS011;16708;50.426;7.664;2023-05-19T17:52:58;4.10;;;1.40;;
29814;SDS011;16708;50.426;7.664;2023-05-19T17:57:52;4.80;;;1.40;;
29814;SDS011;16708;50.426;7.664;2023-05-19T18:02:46;4.20;;;1.40;;
29814;SDS011;16708;50.426;7.664;2023-05-19T18:07:39;3.60;;;1.70;;
29814;SDS011;16708;50.426;7.664;2023-05-19T18:12:33;3.10;;;1.40;;
29814;SDS011;16708;50.426;7.664;2023-05-19T18:17:27;3.60;;;1.60;;
29814;SDS011;16708;50.426;7.664;2023-05-19T18:22:21;1.50;;;1.20;;
29814;SDS011;16708;50.426;7.664;2023-05-19T18:27:13;2.40;;;1.20;;
29814;SDS011;16708;50.426;7.664;2023-05-19T18:32:07;3.70;;;1.30;;
29814;SDS011;16708;50.426;7.664;2023-05-19T18:37:01;2.30;;;1.20;;
29814;SDS011;16708;50.426;7.664;2023-05-19T18:41:55;3.50;;;1.20;;
29814;SDS011;16708;50.426;7.664;2023-05-19T18:46:49;1.70;;;1.10;;
29814;SDS011;16708;50.426;7.664;2023-05-19T18:51:43;3.10;;;1.20;;
29814;SDS011;16708;50.426;7.664;2023-05-19T18:56:37;4.70;;;1.70;;
29814;SDS011;16708;50.426;7.664;2023-05-19T19:01:30;7.50;;;3.00;;
29814;SDS011;16708;50.426;7.664;2023-05-19T19:06:24;4.50;;;1.80;;
29814;SDS011;16708;50.426;7.664;2023-05-19T19:11:16;3.10;;;1.70;;
29814;SDS011;16708;50.426;7.664;2023-05-19T19:16:10;2.50;;;1.10;;
29814;SDS011;16708;50.426;7.664;2023-05-19T19:21:05;2.40;;;1.30;;
29814;SDS011;16708;50.426;7.664;2023-05-19T19:25:59;5.80;;;1.20;;
29814;SDS011;16708;50.426;7.664;2023-05-19T19:30:53;3.30;;;1.50;;
29814;SDS011;16708;50.426;7.664;2023-05-19T19:35:49;2.70;;;1.40;;
29814;SDS011;16708;50.426;7.664;2023-05-19T19:40:42;2.20;;;1.40;;
29814;SDS011;16708;50.426;7.664;2023-05-19T19:45:35;3.60;;;1.40;;
29814;SDS011;16708;50.426;7.664;2023-05-19T19:50:29;3.40;;;1.90;;
29814;SDS011;16708;50.426;7.664;2023-05-19T19:55:24;3.00;;;1.60;;
29814;SDS011;16708;50.426;7.664;2023-05-19T20:00:18;4.80;;;1.70;;
29814;SDS011;16708;50.426;7.664;2023-05-19T20:05:12;5.00;;;1.60;;
29814;SDS011;16708;50.426;7.664;2023-05-19T20:10:06;4.50;;;1.70;;
29814;SDS011;16708;50.426;7.664;2023-05-19T20:15:00;4.60;;;2.40;;
29814;SDS011;16708;50.426;7.664;2023-05-19T20:19:55;9.50;;;5.90;;
29814;SDS011;16708;50.426;7.664;2023-05-19T20:24:48;9.40;;;5.70;;
29814;SDS011;16708;50.426;7.664;2023-05-19T20:29:42;8.40;;;4.20;;
29814;SDS011;16708;50.426;7.664;2023-05-19T20:34:35;10.30;;;5.60;;
29814;SDS011;16708;50.426;7.664;2023-05-19T20:39:29;13.70;;;7.10;;
29814;SDS011;16708;50.426;7.664;2023-05-19T20:44:23;8.40;;;4.20;;
29814;SDS011;16708;50.426;7.664;2023-05-19T20:49:18;10.10;;;3.90;;
29814;SDS011;16708;50.426;7.664;2023-05-19T20:54:12;6.30;;;3.10;;
29814;SDS011;16708;50.426;7.664;2023-05-19T20:59:06;6.30;;;2.20;;
29814;SDS011;16708;50.426;7.664;2023-05-19T21:04:00;4.00;;;1.90;;
29814;SDS011;16708;50.426;7.664;2023-05-19T21:08:55;4.20;;;1.50;;
29814;SDS011;16708;50.426;7.664;2023-05-19T21:13:50;5.90;;;2.90;;
29814;SDS011;16708;50.426;7.664;2023-05-19T21:18:44;5.00;;;2.60;;
29814;SDS011;16708;50.426;7.664;2023-05-19T21:23:37;3.50;;;2.10;;
29814;SDS011;16708;50.426;7.664;2023-05-19T21:28:31;4.90;;;2.40;;
29814;SDS011;16708;50.426;7.664;2023-05-19T21:33:25;6.30;;;3.80;;
29814;SDS011;16708;50.426;7.664;2023-05-19T21:38:19;7.60;;;3.90;;
29814;SDS011;16708;50.426;7.664;2023-05-19T21:43:14;5.00;;;2.70;;
29814;SDS011;16708;50.426;7.664;2023-05-19T21:48:08;3.90;;;1.80;;
29814;SDS011;16708;50.426;7.664;2023-05-19T21:53:03;3.00;;;1.50;;
29814;SDS011;16708;50.426;7.664;2023-05-19T21:57:56;3.40;;;1.40;;
29814;SDS011;16708;50.426;7.664;2023-05-19T22:02:50;3.20;;;1.50;;
29814;SDS011;16708;50.426;7.664;2023-05-19T22:07:44;3.30;;;1.30;;
29814;SDS011;16708;50.426;7.664;2023-05-19T22:12:38;4.30;;;1.40;;
29814;SDS011;16708;50.426;7.664;2023-05-19T22:17:32;2.30;;;1.50;;
29814;SDS011;16708;50.426;7.664;2023-05-19T22:22:24;2.90;;;1.50;;
29814;SDS011;16708;50.426;7.664;2023-05-19T22:27:18;3.10;;;1.30;;
29814;SDS011;16708;50.426;7.664;2023-05-19T22:32:13;5.10;;;1.50;;
29814;SDS011;16708;50.426;7.664;2023-05-19T22:37:07;3.60;;;1.50;;
29814;SDS011;16708;50.426;7.664;2023-05-19T22:42:01;3.70;;;1.40;;
29814;SDS011;16708;50.426;7.664;2023-05-19T22:46:56;4.50;;;2.10;;
29814;SDS011;16708;50.426;7.664;2023-05-19T22:51:50;4.10;;;1.90;;
29814;SDS011;16708;50.426;7.664;2023-05-19T22:56:45;4.00;;;1.60;;
29814;SDS011;16708;50.426;7.664;2023-05-19T23:01:39;3.30;;;1.40;;
29814;SDS011;16708;50.426;7.664;2023-05-19T23:06:32;3.70;;;1.80;;
29814;SDS011;16708;50.426;7.664;2023-05-19T23:11:26;4.00;;;1.50;;
29814;SDS011;16708;50.426;7.664;2023-05-19T23:16:20;5.70;;;1.50;;
29814;SDS011;16708;50.426;7.664;2023-05-19T23:21:15;6.70;;;2.00;;
29814;SDS011;16708;50.426;7.664;2023-05-19T23:26:10;5.20;;;1.60;;
29814;SDS011;16708;50.426;7.664;2023-05-19T23:35:58;3.00;;;1.60;;
29814;SDS011;16708;50.426;7.664;2023-05-19T23:40:53;6.20;;;1.80;;
29814;SDS011;16708;50.426;7.664;2023-05-19T23:45:47;3.30;;;1.60;;
29814;SDS011;16708;50.426;7.664;2023-05-19T23:50:42;5.10;;;2.00;;
29814;SDS011;16708;50.426;7.664;2023-05-19T23:55:36;3.20;;;1.70;;
